Time;durP1;ratioP1;P1;durP2;ratioP2;P2;SDS_P1;SDS_P2;PMS_P1;PMS_P2;Temp;Humidity;BMP_temperature;BMP_pressure;BME280_temperature;BME280_humidity;BME280_pressure;Samples;Min_cycle;Max_cycle;Signal;HPM_P1;HPM_P2
2022/09/03 00:00:07;;;;;;;2.22;1.60;;;;;;;16.73;100.00;101172.81;2612355;36;20349;-53
2022/09/03 00:02:42;;;;;;;1.60;1.48;;;;;;;16.80;100.00;101170.28;2610463;36;20034;-55
2022/09/03 00:05:18;;;;;;;6.03;1.67;;;;;;;16.74;100.00;101171.81;2611902;36;20026;-56
2022/09/03 00:07:57;;;;;;;2.53;1.77;;;;;;;16.67;100.00;101168.06;2612443;36;20458;-54
2022/09/03 00:10:31;;;;;;;2.85;1.55;;;;;;;16.64;100.00;101162.97;2611306;36;20130;-54
2022/09/03 00:13:04;;;;;;;2.60;1.63;;;;;;;16.67;100.00;101161.78;2611914;36;20038;-53
2022/09/03 00:15:34;;;;;;;5.57;1.55;;;;;;;16.61;100.00;101157.88;2612196;36;20438;-52
2022/09/03 00:18:08;;;;;;;2.47;1.40;;;;;;;16.56;100.00;101162.94;2610981;36;20046;-52
2022/09/03 00:20:43;;;;;;;1.88;1.60;;;;;;;16.45;100.00;101159.53;2615109;31;20431;-52
2022/09/03 00:23:20;;;;;;;3.00;1.65;;;;;;;16.42;100.00;101168.03;2611663;36;20066;-50
2022/09/03 00:25:53;;;;;;;3.28;1.45;;;;;;;16.39;100.00;101165.63;2612433;31;20137;-53
2022/09/03 00:28:29;;;;;;;1.92;1.50;;;;;;;16.50;100.00;101159.03;2611121;36;20058;-55
2022/09/03 00:31:10;;;;;;;2.28;1.65;;;;;;;16.40;100.00;101161.06;2611809;36;20039;-53
2022/09/03 00:33:42;;;;;;;2.35;1.58;;;;;;;16.20;100.00;101155.09;2609828;36;20031;-53
2022/09/03 00:36:20;;;;;;;4.18;1.40;;;;;;;16.20;100.00;101157.81;2611972;36;20034;-50
2022/09/03 00:38:51;;;;;;;2.38;1.60;;;;;;;16.22;100.00;101159.31;2611364;36;20514;-51
2022/09/03 00:41:30;;;;;;;3.80;1.55;;;;;;;16.18;100.00;101157.97;2612247;36;20065;-54
2022/09/03 00:44:20;;;;;;;1.63;1.30;;;;;;;16.15;100.00;101152.00;2612478;36;20034;-54
2022/09/03 00:46:55;;;;;;;2.30;1.67;;;;;;;16.16;100.00;101159.13;2612434;36;20665;-53
2022/09/03 00:49:36;;;;;;;3.03;1.38;;;;;;;16.17;100.00;101155.41;2611751;36;20034;-53
2022/09/03 00:52:12;;;;;;;3.30;1.80;;;;;;;16.04;100.00;101155.88;2612937;31;20045;-54
2022/09/03 00:54:53;;;;;;;5.10;1.58;;;;;;;16.01;100.00;101151.63;2611222;36;20035;-51
2022/09/03 00:57:32;;;;;;;4.10;1.90;;;;;;;16.09;100.00;101154.38;2615008;36;20037;-55
2022/09/03 01:00:15;;;;;;;1.45;1.20;;;;;;;16.09;100.00;101154.38;2614042;36;20050;-53
2022/09/03 01:02:56;;;;;;;3.28;1.50;;;;;;;16.04;100.00;101159.44;2611728;36;20034;-57
2022/09/03 01:05:35;;;;;;;1.88;1.50;;;;;;;15.95;100.00;101157.72;2614371;36;20034;-56
2022/09/03 01:08:31;;;;;;;2.63;1.42;;;;;;;15.86;100.00;101156.00;2613981;31;20569;-53
2022/09/03 01:11:12;;;;;;;5.45;1.42;;;;;;;15.80;100.00;101148.47;2614053;36;20027;-56
2022/09/03 01:13:47;;;;;;;3.67;1.40;;;;;;;15.82;100.00;101157.31;2614825;36;20614;-54
2022/09/03 01:16:26;;;;;;;2.17;1.30;;;;;;;15.70;100.00;101148.59;2614663;31;20070;-56
2022/09/03 01:19:01;;;;;;;3.78;1.50;;;;;;;15.74;100.00;101153.53;2612942;36;20065;-54
2022/09/03 01:21:52;;;;;;;3.25;1.67;;;;;;;15.75;100.00;101159.78;2615146;36;20031;-52
2022/09/03 01:24:48;;;;;;;2.03;1.48;;;;;;;15.82;100.00;101154.63;2613791;36;20035;-49
2022/09/03 01:27:34;;;;;;;2.53;1.40;;;;;;;15.80;100.00;101160.22;2613275;36;20057;-53
2022/09/03 01:30:09;;;;;;;5.15;1.65;;;;;;;15.88;100.00;101167.53;2614095;36;20412;-54
2022/09/03 01:32:45;;;;;;;3.60;1.60;;;;;;;15.83;100.00;101161.75;2612738;36;20060;-54
2022/09/03 01:35:23;;;;;;;4.40;1.42;;;;;;;15.82;100.00;101163.59;2613426;31;20065;-50
2022/09/03 01:38:08;;;;;;;5.97;1.58;;;;;;;15.82;100.00;101162.75;2614842;36;20141;-51
2022/09/03 01:40:47;;;;;;;1.88;1.23;;;;;;;15.76;100.00;101164.22;2613325;36;20030;-53
2022/09/03 01:43:34;;;;;;;5.55;1.48;;;;;;;15.76;100.00;101159.63;2615134;31;20030;-55
2022/09/03 01:46:12;;;;;;;2.53;1.55;;;;;;;15.73;100.00;101154.53;2613473;36;20526;-55
2022/09/03 01:48:51;;;;;;;3.88;1.70;;;;;;;15.76;100.00;101158.78;2612348;36;20041;-53
2022/09/03 01:51:23;;;;;;;2.08;1.52;;;;;;;15.81;100.00;101155.63;2614256;36;20035;-52
2022/09/03 01:54:35;;;;;;;1.83;1.48;;;;;;;15.82;100.00;101163.59;2614939;36;20051;-53
2022/09/03 01:57:23;;;;;;;3.70;1.38;;;;;;;15.94;100.00;101161.44;2613864;36;20031;-55
2022/09/03 01:59:59;;;;;;;1.85;1.52;;;;;;;15.75;100.00;101160.66;2613295;36;20027;-52
2022/09/03 02:02:32;;;;;;;2.72;1.60;;;;;;;15.63;100.00;101164.66;2602931;36;20062;-55
2022/09/03 02:05:08;;;;;;;2.75;1.48;;;;;;;15.61;100.00;101163.16;2601880;36;20041;-49
2022/09/03 02:07:38;;;;;;;3.00;1.60;;;;;;;15.65;100.00;101168.09;2602691;31;20513;-52
2022/09/03 02:10:10;;;;;;;2.65;1.40;;;;;;;15.62;100.00;101162.09;2609736;36;20049;-54
2022/09/03 02:12:41;;;;;;;2.85;1.50;;;;;;;15.68;100.00;101169.59;2610816;36;20069;-54
2022/09/03 02:15:14;;;;;;;1.83;1.40;;;;;;;15.62;100.00;101164.81;2612377;31;21619;-53
2022/09/03 02:17:48;;;;;;;3.55;1.58;;;;;;;15.54;100.00;101161.06;2609432;36;20034;-55
2022/09/03 02:20:21;;;;;;;2.70;1.65;;;;;;;15.54;100.00;101160.22;2609727;36;20033;-54
2022/09/03 02:22:51;;;;;;;4.22;2.50;;;;;;;15.48;100.00;101161.69;2612468;31;20063;-52
2022/09/03 02:25:19;;;;;;;2.10;1.45;;;;;;;15.48;100.00;101159.00;2612375;36;20444;-51
2022/09/03 02:27:49;;;;;;;2.37;1.33;;;;;;;15.44;100.00;101157.59;2612180;36;20828;-48
2022/09/03 02:30:19;;;;;;;3.90;1.42;;;;;;;15.47;100.00;101159.16;2612257;36;20358;-55
2022/09/03 02:32:50;;;;;;;1.77;1.40;;;;;;;15.51;100.00;101152.41;2611989;36;20034;-56
2022/09/03 02:35:18;;;;;;;2.83;1.58;;;;;;;15.47;100.00;101159.16;2614237;36;20041;-48
2022/09/03 02:37:47;;;;;;;2.90;1.70;;;;;;;15.44;100.00;101159.47;2615971;36;20073;-50
2022/09/03 02:40:16;;;;;;;2.03;1.10;;;;;;;15.47;100.00;101153.72;2615869;36;20041;-48
2022/09/03 02:42:44;;;;;;;2.10;1.60;;;;;;;15.56;100.00;101148.19;2615984;36;20074;-54
2022/09/03 02:45:23;;;;;;;3.77;2.10;;;;;;;15.58;100.00;101154.28;2615712;36;20056;-49
2022/09/03 02:47:57;;;;;;;2.22;1.30;;;;;;;15.56;100.00;101147.31;2614823;36;20359;-50
2022/09/03 02:50:26;;;;;;;2.53;1.30;;;;;;;15.62;100.00;101149.41;2616010;36;20042;-52
2022/09/03 02:52:55;;;;;;;2.42;1.30;;;;;;;15.55;100.00;101141.06;2615699;36;20534;-51
2022/09/03 02:55:23;;;;;;;4.13;1.50;;;;;;;15.54;100.00;101147.50;2614743;36;20031;-53
2022/09/03 02:57:51;;;;;;;5.57;1.40;;;;;;;15.57;100.00;101139.03;2616201;36;20443;-50
2022/09/03 03:00:20;;;;;;;2.25;1.58;;;;;;;15.57;100.00;101144.44;2616327;36;20455;-56
2022/09/03 03:02:48;;;;;;;1.70;1.27;;;;;;;15.61;100.00;101145.00;2615340;36;20035;-50
2022/09/03 03:05:26;;;;;;;2.10;1.50;;;;;;;15.52;100.00;101145.97;2615632;36;20038;-50
2022/09/03 03:07:55;;;;;;;2.78;1.63;;;;;;;15.49;100.00;101135.41;2615699;36;20339;-54
2022/09/03 03:10:23;;;;;;;1.67;1.30;;;;;;;15.54;100.00;101143.94;2615663;36;20062;-50
2022/09/03 03:12:51;;;;;;;3.10;1.45;;;;;;;15.49;100.00;101140.84;2614973;36;20065;-50
2022/09/03 03:15:19;;;;;;;1.77;1.23;;;;;;;15.43;100.00;101147.78;2616110;36;20586;-53
2022/09/03 03:17:47;;;;;;;2.03;1.30;;;;;;;15.38;100.00;101131.97;2614620;36;20046;-51
2022/09/03 03:20:18;;;;;;;15.38;3.28;;;;;;;15.32;100.00;101138.03;2615287;36;20034;-54
2022/09/03 03:22:48;;;;;;;1.98;1.17;;;;;;;15.34;100.00;101135.16;2614987;36;20078;-56
2022/09/03 03:25:16;;;;;;;2.05;1.40;;;;;;;15.41;100.00;101142.53;2615691;36;20034;-51
2022/09/03 03:27:45;;;;;;;2.45;1.40;;;;;;;15.48;100.00;101139.16;2615964;31;20058;-56
2022/09/03 03:30:14;;;;;;;1.85;1.42;;;;;;;15.38;100.00;101140.09;2616012;31;20030;-49
2022/09/03 03:32:43;;;;;;;2.05;1.40;;;;;;;15.40;100.00;101134.56;2614908;36;20042;-52
2022/09/03 03:35:12;;;;;;;;;;;;;;;15.37;100.00;101129.41;2615513;31;20023;-54
2022/09/03 03:37:43;;;;;;;4.82;1.50;;;;;;;15.47;100.00;101127.44;2613631;36;19947;-52
2022/09/03 03:40:12;;;;;;;3.22;1.45;;;;;;;15.41;100.00;101128.97;2613103;36;20026;-51
2022/09/03 03:42:41;;;;;;;1.55;1.30;;;;;;;15.36;100.00;101133.16;2611743;36;20558;-52
2022/09/03 03:45:11;;;;;;;2.45;1.40;;;;;;;15.29;100.00;101135.66;2612029;36;20748;-50
2022/09/03 03:47:39;;;;;;;2.42;1.50;;;;;;;15.24;100.00;101138.00;2611920;36;20039;-49
2022/09/03 03:50:09;;;;;;;3.10;1.50;;;;;;;15.20;100.00;101136.63;2611444;31;20570;-53
2022/09/03 03:52:37;;;;;;;2.28;1.50;;;;;;;15.16;100.00;101135.22;2613623;31;20045;-50
2022/09/03 03:55:09;;;;;;;2.33;1.65;;;;;;;15.20;100.00;101136.63;2611707;36;20038;-50
2022/09/03 03:57:38;;;;;;;1.45;1.20;;;;;;;15.20;100.00;101131.19;2613137;36;20038;-54
2022/09/03 04:00:07;;;;;;;2.45;1.63;;;;;;;15.17;100.00;101134.22;2613250;36;20034;-51
2022/09/03 04:02:36;;;;;;;3.50;1.48;;;;;;;15.18;100.00;101138.63;2612703;36;20742;-53
2022/09/03 04:05:04;;;;;;;2.57;1.53;;;;;;;15.13;100.00;101136.41;2613884;36;20058;-50
2022/09/03 04:07:32;;;;;;;1.85;1.45;;;;;;;15.25;100.00;101139.69;2616116;36;20704;-54
2022/09/03 04:10:00;;;;;;;2.00;1.30;;;;;;;15.20;100.00;101136.63;2615678;36;20026;-49
2022/09/03 04:12:32;;;;;;;2.15;1.58;;;;;;;15.19;100.00;101133.06;2613940;36;20082;-52
2022/09/03 04:15:00;;;;;;;2.38;1.30;;;;;;;15.27;100.00;101137.69;2614559;36;20035;-50
2022/09/03 04:17:29;;;;;;;3.45;1.77;;;;;;;15.48;100.00;101144.59;2614818;36;20031;-50
2022/09/03 04:19:58;;;;;;;4.55;1.33;;;;;;;15.35;100.00;101132.28;2615726;36;20030;-51
2022/09/03 04:22:26;;;;;;;1.58;1.25;;;;;;;15.27;100.00;101134.97;2614918;31;20039;-50
2022/09/03 04:24:54;;;;;;;1.73;1.33;;;;;;;15.20;100.00;101136.63;2615204;36;20057;-53
2022/09/03 04:27:22;;;;;;;1.40;1.30;;;;;;;15.17;100.00;101128.81;2615731;31;20061;-54
2022/09/03 04:29:53;;;;;;;3.47;1.40;;;;;;;15.28;100.00;101123.09;2615744;36;20038;-49
2022/09/03 04:35:06;;;;;;;3.40;1.27;;;;;;;15.20;100.00;101125.78;2616526;54;20037;-48
2022/09/03 04:37:35;;;;;;;2.28;1.65;;;;;;;15.27;100.00;101125.97;2616599;36;20042;-51
2022/09/03 04:40:03;;;;;;;1.75;1.33;;;;;;;15.26;100.00;101124.28;2614851;36;20038;-51
2022/09/03 04:42:32;;;;;;;2.42;1.15;;;;;;;15.21;100.00;101124.78;2614983;36;20046;-51
2022/09/03 04:45:03;;;;;;;2.17;1.30;;;;;;;15.09;100.00;101123.31;2615070;31;20042;-50
2022/09/03 04:47:31;;;;;;;2.13;1.30;;;;;;;15.07;100.00;101124.34;2615298;36;20046;-50
2022/09/03 04:50:00;;;;;;;1.85;1.40;;;;;;;15.03;100.00;101122.97;2615514;36;20034;-50
2022/09/03 04:52:30;;;;;;;1.75;1.30;;;;;;;14.96;100.00;101119.19;2615314;36;20043;-53
2022/09/03 04:54:58;;;;;;;2.70;1.30;;;;;;;14.97;100.00;101120.91;2615451;36;20034;-51
2022/09/03 04:57:33;;;;;;;1.33;1.08;;;;;;;14.95;100.00;101112.06;2615570;36;20060;-51
2022/09/03 05:00:04;;;;;;;2.15;1.40;;;;;;;14.95;100.00;101117.47;2614872;36;20577;-50
2022/09/03 05:02:33;;;;;;;3.75;1.40;;;;;;;14.88;100.00;101125.41;2614247;36;20034;-49
2022/09/03 05:05:01;;;;;;;1.40;1.20;;;;;;;14.91;100.00;101129.63;2615443;36;20034;-49
2022/09/03 05:07:37;;;;;;;2.20;1.52;;;;;;;14.77;100.00;101133.78;2613278;36;20565;-51
2022/09/03 05:10:07;;;;;;;1.70;1.40;;;;;;;14.83;100.00;101135.00;2612559;36;20447;-52
2022/09/03 05:12:35;;;;;;;1.70;1.40;;;;;;;14.82;100.00;101136.84;2612957;36;20470;-50
2022/09/03 05:15:07;;;;;;;2.43;1.23;;;;;;;14.78;100.00;101137.31;2612556;36;20097;-53
2022/09/03 05:17:37;;;;;;;1.65;1.23;;;;;;;14.78;100.00;101140.91;2610500;36;20030;-49
2022/09/03 05:20:06;;;;;;;2.13;1.25;;;;;;;14.76;100.00;101139.34;2613527;36;20126;-53
2022/09/03 05:22:35;;;;;;;1.70;1.33;;;;;;;14.83;100.00;101132.31;2612236;36;20061;-55
2022/09/03 05:25:04;;;;;;;1.80;1.30;;;;;;;14.84;100.00;101137.56;2613390;31;20043;-53
2022/09/03 05:27:33;;;;;;;2.28;1.25;;;;;;;14.80;100.00;101136.16;2612407;36;20042;-55
2022/09/03 05:30:01;;;;;;;2.70;1.50;;;;;;;14.87;100.00;101131.81;2611339;36;20045;-51
2022/09/03 05:32:34;;;;;;;1.60;1.37;;;;;;;14.75;100.00;101138.47;2610052;36;20038;-53
2022/09/03 05:35:02;;;;;;;3.58;1.33;;;;;;;14.87;100.00;101130.97;2612854;36;20047;-52
2022/09/03 05:37:30;;;;;;;2.33;1.20;;;;;;;14.94;100.00;101125.78;2613173;31;20521;-54
2022/09/03 05:39:59;;;;;;;1.70;1.17;;;;;;;14.88;100.00;101129.94;2611859;36;20042;-54
2022/09/03 05:42:27;;;;;;;1.77;1.48;;;;;;;14.96;100.00;101127.31;2612124;31;20534;-52
2022/09/03 05:44:56;;;;;;;1.50;1.30;;;;;;;14.93;100.00;101138.47;2611042;36;20569;-52
2022/09/03 05:47:24;;;;;;;4.30;1.75;;;;;;;14.91;100.00;101132.34;2607495;36;20058;-56
2022/09/03 05:49:55;;;;;;;1.90;1.30;;;;;;;14.90;100.00;101130.66;2606058;36;20121;-50
2022/09/03 05:52:23;;;;;;;1.58;1.20;;;;;;;14.94;100.00;101133.91;2604528;36;20543;-56
2022/09/03 05:54:51;;;;;;;1.90;1.30;;;;;;;14.89;100.00;101140.63;2604537;31;20057;-50
2022/09/03 05:57:20;;;;;;;3.65;1.40;;;;;;;14.89;100.00;101128.97;2605494;36;20038;-52
2022/09/03 05:59:48;;;;;;;2.10;1.25;;;;;;;14.95;100.00;101127.47;2606057;36;20030;-55
2022/09/03 06:02:18;;;;;;;2.20;1.30;;;;;;;15.07;100.00;101118.94;2605482;36;20035;-55
2022/09/03 06:04:47;;;;;;;1.70;1.60;;;;;;;15.18;100.00;101122.34;2605092;36;20042;-54
2022/09/03 06:07:18;;;;;;;3.40;1.27;;;;;;;15.15;100.00;101122.69;2604965;36;20039;-52
2022/09/03 06:09:46;;;;;;;1.73;1.20;;;;;;;15.21;100.00;101127.50;2607770;36;20126;-55
2022/09/03 06:12:14;;;;;;;5.88;1.40;;;;;;;15.17;100.00;101136.94;2606358;36;20034;-51
2022/09/03 06:14:42;;;;;;;3.60;1.10;;;;;;;15.21;100.00;101138.34;2606607;31;20050;-50
2022/09/03 06:17:13;;;;;;;2.15;1.30;;;;;;;15.26;100.00;101135.97;2603523;36;20034;-52
2022/09/03 06:19:42;;;;;;;2.22;1.30;;;;;;;15.37;100.00;101138.44;2604591;36;20037;-60
2022/09/03 06:22:10;;;;;;;1.60;1.17;;;;;;;15.39;100.00;101133.69;2608099;36;20061;-50
2022/09/03 06:24:41;;;;;;;1.92;1.08;;;;;;;15.40;100.00;101132.69;2604210;36;20693;-52
2022/09/03 06:27:09;;;;;;;2.85;1.40;;;;;;;15.43;100.00;101142.38;2603800;36;20034;-51
2022/09/03 06:29:38;;;;;;;2.03;1.13;;;;;;;15.51;100.00;101144.25;2604459;36;20065;-51
2022/09/03 06:32:07;;;;;;;2.35;1.27;;;;;;;15.62;100.00;101133.13;2606534;31;20065;-50
2022/09/03 06:34:35;;;;;;;3.80;1.33;;;;;;;15.71;100.00;101137.56;2604730;31;20058;-55
2022/09/03 06:37:03;;;;;;;1.50;1.20;;;;;;;15.94;100.00;101137.88;2605129;36;20035;-51
2022/09/03 06:39:32;;;;;;;2.33;1.23;;;;;;;15.96;100.00;101134.13;2606800;36;20046;-55
2022/09/03 06:42:03;;;;;;;3.20;1.10;;;;;;;16.11;100.00;101136.03;2607047;36;20046;-56
2022/09/03 06:44:31;;;;;;;1.67;1.08;;;;;;;16.08;100.00;101140.97;2603251;31;20042;-54
2022/09/03 06:47:00;;;;;;;2.00;1.20;;;;;;;16.16;100.00;101142.84;2606334;36;20065;-56
2022/09/03 06:49:30;;;;;;;1.55;1.13;;;;;;;16.22;100.00;101142.19;2604272;36;20220;-54
2022/09/03 06:51:58;;;;;;;2.05;1.10;;;;;;;16.26;100.00;101143.53;2605248;36;20038;-56
2022/09/03 06:54:27;;;;;;;1.83;1.30;;;;;;;16.25;100.00;101150.00;2608453;36;20065;-51
2022/09/03 06:56:55;;;;;;;4.43;1.40;;;;;;;16.41;100.00;101147.28;2607143;36;20410;-51
2022/09/03 06:59:26;;;;;;;1.77;1.17;;;;;;;16.62;100.00;101140.53;2604579;36;20034;-53
2022/09/03 07:01:56;;;;;;;2.47;1.30;;;;;;;16.59;100.00;101151.75;2611022;36;20641;-50
2022/09/03 07:04:25;;;;;;;1.90;1.30;;;;;;;16.45;100.00;101142.41;2605408;36;20038;-52
2022/09/03 07:06:54;;;;;;;2.30;1.40;;;;;;;16.46;100.00;101155.81;2608146;36;20039;-53
2022/09/03 07:09:22;;;;;;;4.13;1.52;;;;;;;16.39;100.00;101153.94;2606245;36;20420;-53
2022/09/03 07:11:51;;;;;;;2.70;1.20;;;;;;;16.44;100.00;101167.84;2605674;36;20921;-50
2022/09/03 07:14:20;;;;;;;1.43;1.10;;;;;;;16.51;100.00;101159.91;2604565;36;21823;-54
2022/09/03 07:16:52;;;;;;;2.33;1.40;;;;;;;16.44;100.00;101160.56;2606533;36;20053;-55
2022/09/03 07:19:20;;;;;;;2.58;1.05;;;;;;;16.61;100.00;101153.28;2609001;31;20054;-48
2022/09/03 07:21:49;;;;;;;2.10;1.40;;;;;;;16.60;100.00;101156.16;2605145;36;20065;-49
2022/09/03 07:24:17;;;;;;;2.07;1.27;;;;;;;16.68;100.00;101155.31;2606819;36;20022;-49
2022/09/03 07:26:45;;;;;;;3.95;2.15;;;;;;;16.88;100.00;101156.72;2604764;36;20034;-52
2022/09/03 07:29:14;;;;;;;2.00;1.35;;;;;;;16.96;100.00;101156.72;2605859;36;20034;-56
2022/09/03 07:31:44;;;;;;;2.22;1.48;;;;;;;17.12;100.00;101150.41;2606426;31;20035;-52
2022/09/03 07:34:15;;;;;;;2.70;1.50;;;;;;;17.36;100.00;101154.09;2605588;31;20038;-53
2022/09/03 07:36:45;;;;;;;2.47;1.13;;;;;;;17.58;100.00;101152.53;2604656;36;20030;-53
2022/09/03 07:39:16;;;;;;;3.30;1.17;;;;;;;17.85;100.00;101148.47;2606920;36;20041;-54
2022/09/03 07:41:45;;;;;;;2.25;1.45;;;;;;;17.96;100.00;101149.16;2612910;31;20022;-50
2022/09/03 07:44:14;;;;;;;1.35;0.90;;;;;;;18.21;100.00;101155.31;2611774;36;20045;-52
2022/09/03 07:46:44;;;;;;;1.90;1.15;;;;;;;18.19;100.00;101150.03;2611953;36;20063;-52
2022/09/03 07:49:16;;;;;;;4.18;1.30;;;;;;;18.40;100.00;101148.56;2611495;31;20038;-50
2022/09/03 07:51:45;;;;;;;2.38;1.27;;;;;;;18.51;99.29;101150.03;2612957;36;20172;-49
2022/09/03 07:54:13;;;;;;;3.00;1.35;;;;;;;18.65;100.00;101162.84;2612587;36;20038;-50
2022/09/03 07:56:42;;;;;;;1.37;1.10;;;;;;;18.83;100.00;101159.84;2611838;31;20023;-56
2022/09/03 07:59:10;;;;;;;3.60;1.13;;;;;;;18.99;95.68;101164.34;2613757;36;20661;-50
2022/09/03 08:01:39;;;;;;;5.88;1.33;;;;;;;19.00;100.00;101163.28;2615140;36;20419;-54
2022/09/03 08:04:09;;;;;;;1.52;1.00;;;;;;;19.16;98.71;101156.81;2614111;36;20041;-51
2022/09/03 08:06:41;;;;;;;2.17;1.10;;;;;;;19.43;98.52;101157.22;2615050;31;20106;-51
2022/09/03 08:09:12;;;;;;;2.38;1.17;;;;;;;19.55;89.04;101161.22;2614761;31;20798;-54
2022/09/03 08:11:43;;;;;;;1.17;1.00;;;;;;;19.59;93.98;101158.94;2614915;36;20030;-51
2022/09/03 08:14:14;;;;;;;1.75;1.20;;;;;;;19.65;93.72;101157.34;2614677;36;20034;-50
2022/09/03 08:16:44;;;;;;;2.67;1.10;;;;;;;19.93;93.01;101155.66;2612666;36;20030;-52
2022/09/03 08:19:13;;;;;;;2.58;1.45;;;;;;;19.82;89.68;101161.59;2610727;36;20085;-49
2022/09/03 08:21:44;;;;;;;2.80;1.30;;;;;;;20.04;88.43;101150.75;2612887;36;21161;-53
2022/09/03 08:24:13;;;;;;;3.58;1.38;;;;;;;20.31;89.16;101158.19;2612269;36;20042;-54
2022/09/03 08:26:43;;;;;;;;;;;;;;;20.44;87.06;101159.38;2613958;36;20031;-51
2022/09/03 08:29:11;;;;;;;1.70;1.25;;;;;;;20.59;89.53;101157.44;2613710;36;20424;-50
2022/09/03 08:31:39;;;;;;;2.00;1.38;;;;;;;20.70;80.48;101160.72;2612610;31;20611;-54
2022/09/03 08:34:10;;;;;;;2.88;1.20;;;;;;;20.78;84.24;101158.69;2611925;36;20535;-49
2022/09/03 08:36:45;;;;;;;1.90;1.27;;;;;;;21.19;82.04;101157.16;2611612;36;20034;-52
2022/09/03 08:39:13;;;;;;;1.83;1.10;;;;;;;21.32;82.11;101159.13;2603209;36;20038;-57
2022/09/03 08:42:07;;;;;;;1.70;1.00;;;;;;;21.20;79.94;101157.97;2609949;36;20065;-51
2022/09/03 08:44:45;;;;;;;4.05;1.10;;;;;;;21.20;81.00;101150.63;2610517;36;20026;-53
2022/09/03 08:47:19;;;;;;;2.83;1.48;;;;;;;21.35;73.76;101156.00;2612150;36;20041;-55
2022/09/03 08:49:53;;;;;;;2.28;1.20;;;;;;;21.42;73.55;101153.28;2610593;36;20023;-50
2022/09/03 08:52:31;;;;;;;2.63;1.10;;;;;;;21.56;75.53;101149.63;2611702;36;20030;-54
2022/09/03 08:55:01;;;;;;;3.42;1.27;;;;;;;;;;2611765;36;20407;-51
2022/09/03 08:57:45;;;;;;;2.45;1.10;;;;;;;22.12;72.40;101145.88;2610304;36;20593;-54
2022/09/03 09:00:14;;;;;;;3.53;1.20;;;;;;;22.37;67.86;101146.16;2611428;36;20041;-54
2022/09/03 09:02:53;;;;;;;2.75;1.30;;;;;;;22.46;72.41;101154.22;2611650;36;20474;-53
2022/09/03 09:05:33;;;;;;;4.13;1.40;;;;;;;22.30;72.06;101150.75;2612708;31;20038;-53
2022/09/03 09:08:14;;;;;;;1.75;1.20;;;;;;;22.80;65.73;101149.63;2609980;36;20061;-55
2022/09/03 09:10:48;;;;;;;3.60;1.10;;;;;;;22.59;67.91;101148.75;2610931;36;20034;-55
2022/09/03 09:13:25;;;;;;;3.70;1.20;;;;;;;22.66;65.38;101148.75;2610480;36;20531;-51
2022/09/03 09:16:04;;;;;;;1.95;1.10;;;;;;;22.92;63.92;101158.91;2611614;36;20026;-54
2022/09/03 09:18:50;;;;;;;2.10;1.08;;;;;;;22.94;64.33;101145.84;2610168;36;20042;-54
2022/09/03 09:21:25;;;;;;;3.08;1.20;;;;;;;23.12;69.09;101147.13;2612403;36;20035;-51
2022/09/03 09:24:01;;;;;;;2.03;1.05;;;;;;;23.13;61.77;101143.31;2611672;36;20038;-56
2022/09/03 09:26:30;;;;;;;2.28;1.30;;;;;;;23.33;63.65;101137.78;2609641;36;20046;-53
2022/09/03 09:29:05;;;;;;;1.42;1.10;;;;;;;23.20;62.19;101146.88;2612864;36;20042;-56
2022/09/03 09:31:34;;;;;;;4.18;2.55;;;;;;;23.64;64.87;101147.22;2612466;31;20042;-51
2022/09/03 09:34:05;;;;;;;;;;;;;;;23.74;62.09;101137.47;2610323;36;20034;-53
2022/09/03 09:36:43;;;;;;;1.30;1.20;;;;;;;23.75;58.98;101135.56;2612953;31;19965;-55
2022/09/03 09:39:16;;;;;;;2.43;1.40;;;;;;;23.98;61.37;101142.47;2604538;36;20035;-57
2022/09/03 09:41:45;;;;;;;2.35;1.13;;;;;;;24.13;59.95;101138.38;2605410;31;20041;-54
2022/09/03 09:44:22;;;;;;;1.55;1.08;;;;;;;23.82;56.31;101136.38;2611203;31;20031;-53
2022/09/03 09:46:50;;;;;;;2.00;1.02;;;;;;;24.12;56.43;101130.34;2611374;36;20462;-54
2022/09/03 09:49:34;;;;;;;2.95;1.10;;;;;;;24.41;56.82;101133.56;2609841;36;20034;-50
2022/09/03 09:52:03;;;;;;;5.13;1.20;;;;;;;24.68;55.12;101130.69;2612970;36;20029;-52
2022/09/03 09:54:34;;;;;;;2.53;1.35;;;;;;;24.71;53.62;101133.81;2614372;31;20022;-54
2022/09/03 09:57:05;;;;;;;2.13;0.95;;;;;;;24.39;54.78;101141.22;2611946;36;20031;-54
2022/09/03 09:59:36;;;;;;;1.60;0.90;;;;;;;24.48;54.69;101135.22;2610663;36;20450;-55
2022/09/03 10:02:13;;;;;;;3.35;1.00;;;;;;;24.52;54.05;101138.38;2611680;36;20061;-53
2022/09/03 10:04:42;;;;;;;4.22;1.10;;;;;;;24.90;55.31;101136.63;2611464;31;20532;-49
2022/09/03 10:07:25;;;;;;;4.13;1.50;;;;;;;24.95;53.64;101139.56;2611976;52;20038;-53
2022/09/03 10:10:04;;;;;;;2.03;1.17;;;;;;;25.10;51.51;101130.94;2612601;36;20030;-52
2022/09/03 10:12:36;;;;;;;1.60;1.08;;;;;;;25.33;53.42;101130.31;2611862;31;20566;-55
2022/09/03 10:15:15;;;;;;;1.23;1.13;;;;;;;25.58;52.02;101129.44;2611243;36;20030;-52
2022/09/03 10:17:46;;;;;;;;;;;;;;;25.62;49.54;101119.63;2611186;36;20432;-52
2022/09/03 10:20:30;;;;;;;1.70;1.10;;;;;;;25.51;50.47;101116.56;2611358;54;19966;-52
2022/09/03 10:23:02;;;;;;;1.70;1.13;;;;;;;25.83;48.13;101108.09;2610330;54;20051;-54
2022/09/03 10:25:40;;;;;;;2.38;1.02;;;;;;;25.81;50.58;101109.41;2610719;36;20734;-53
2022/09/03 10:28:12;;;;;;;1.00;0.90;;;;;;;25.94;50.42;101102.88;2611061;36;20061;-54
2022/09/03 10:30:56;;;;;;;6.13;1.10;;;;;;;26.02;50.73;101105.38;2608989;36;20311;-51
2022/09/03 10:33:29;;;;;;;2.55;1.20;;;;;;;25.97;48.84;101103.28;2612468;36;20038;-52
2022/09/03 10:36:12;;;;;;;3.78;0.90;;;;;;;25.70;48.03;101105.53;2612091;36;20029;-53
2022/09/03 10:38:44;;;;;;;1.83;1.02;;;;;;;25.93;47.16;101112.22;2609508;31;20690;-52
2022/09/03 10:41:33;;;;;;;2.35;1.00;;;;;;;25.97;47.65;101097.75;2611109;36;20045;-52
2022/09/03 10:44:34;;;;;;;1.92;0.90;;;;;;;26.35;48.05;101106.78;2614205;36;20039;-52
2022/09/03 10:47:14;;;;;;;1.55;1.00;;;;;;;26.62;47.01;101092.56;2614725;36;20519;-51
2022/09/03 10:49:55;;;;;;;1.90;1.00;;;;;;;26.84;46.53;101090.97;2615000;36;20038;-51
2022/09/03 10:52:30;;;;;;;2.20;0.98;;;;;;;26.84;46.17;101096.47;2616623;31;20067;-52
2022/09/03 10:55:14;;;;;;;1.17;1.02;;;;;;;26.81;46.47;101091.44;2615724;36;20031;-55
2022/09/03 10:57:50;;;;;;;6.22;1.13;;;;;;;27.17;47.44;101092.25;2616338;36;20034;-51
2022/09/03 11:00:21;;;;;;;2.25;1.13;;;;;;;26.99;45.43;101086.88;2615867;36;20081;-52
2022/09/03 11:03:23;;;;;;;1.00;0.90;;;;;;;27.42;49.77;101094.78;2616155;31;20037;-55
2022/09/03 11:06:03;;;;;;;1.25;1.10;;;;;;;27.11;47.31;101096.00;2615817;31;20031;-53
2022/09/03 11:08:38;;;;;;;3.55;1.02;;;;;;;26.79;44.13;101076.19;2616503;31;20435;-54
2022/09/03 11:11:13;;;;;;;2.95;1.20;;;;;;;27.02;44.62;101091.94;2616354;36;20030;-51
2022/09/03 11:13:52;;;;;;;1.20;0.95;;;;;;;26.83;45.44;101091.19;2615980;36;20042;-51
2022/09/03 11:16:27;;;;;;;2.38;0.90;;;;;;;26.82;43.79;101084.00;2615918;36;20075;-49
2022/09/03 11:18:59;;;;;;;1.65;1.27;;;;;;;27.09;45.46;101092.63;2616122;36;20054;-52
2022/09/03 11:21:33;;;;;;;4.00;1.05;;;;;;;27.05;44.47;101085.91;2617328;36;20076;-50
2022/09/03 11:24:09;;;;;;;3.25;1.20;;;;;;;27.28;43.87;101085.91;2616138;36;20034;-51
2022/09/03 11:26:39;;;;;;;1.27;0.90;;;;;;;27.60;45.04;101088.25;2616697;31;20459;-51
2022/09/03 11:29:17;;;;;;;3.42;1.25;;;;;;;27.70;44.81;101081.28;2615916;36;20061;-55
2022/09/03 11:31:58;;;;;;;1.30;0.90;;;;;;;27.39;45.86;101075.09;2616708;36;20430;-51
2022/09/03 11:34:33;;;;;;;3.58;1.08;;;;;;;27.76;45.31;101080.28;2614238;36;20033;-53
2022/09/03 11:37:18;;;;;;;1.35;1.00;;;;;;;27.82;43.99;101076.53;2615229;36;20018;-53
2022/09/03 11:39:54;;;;;;;1.13;0.90;;;;;;;27.79;42.73;101069.56;2615593;36;20124;-50
2022/09/03 11:42:33;;;;;;;1.30;0.80;;;;;;;27.82;42.03;101072.94;2614067;31;20034;-56
2022/09/03 11:45:21;;;;;;;2.70;1.20;;;;;;;27.81;42.28;101066.53;2615110;36;20023;-50
2022/09/03 11:47:50;;;;;;;;;;;;;;;28.02;41.37;101055.91;2614377;36;20034;-49
2022/09/03 11:50:20;;;;;;;;;;;;;;;28.12;40.81;101061.63;2615837;36;20359;-57